sensor_id;sensor_type;location;lat;lon;timestamp;temperature;humidity
20139;DHT22;10230;51.502;10.800;2022-12-24T00:02:11;9.10;99.90
20139;DHT22;10230;51.502;10.800;2022-12-24T00:04:37;9.10;99.90
20139;DHT22;10230;51.502;10.800;2022-12-24T00:07:03;9.10;99.90
20139;DHT22;10230;51.502;10.800;2022-12-24T00:09:28;9.10;99.90
20139;DHT22;10230;51.502;10.800;2022-12-24T00:11:54;9.10;99.90
20139;DHT22;10230;51.502;10.800;2022-12-24T00:14:20;9.10;99.90
20139;DHT22;10230;51.502;10.800;2022-12-24T00:16:45;9.10;99.90
20139;DHT22;10230;51.502;10.800;2022-12-24T00:19:11;9.10;99.90
20139;DHT22;10230;51.502;10.800;2022-12-24T00:21:37;9.10;99.90
20139;DHT22;10230;51.502;10.800;2022-12-24T00:24:03;9.10;99.90
20139;DHT22;10230;51.502;10.800;2022-12-24T00:26:31;9.10;99.90
20139;DHT22;10230;51.502;10.800;2022-12-24T00:28:56;9.10;99.90
20139;DHT22;10230;51.502;10.800;2022-12-24T00:31:22;9.10;99.90
20139;DHT22;10230;51.502;10.800;2022-12-24T00:33:48;9.10;99.90
20139;DHT22;10230;51.502;10.800;2022-12-24T00:36:14;9.10;99.90
20139;DHT22;10230;51.502;10.800;2022-12-24T00:38:40;9.10;99.90
20139;DHT22;10230;51.502;10.800;2022-12-24T00:41:08;9.10;99.90
20139;DHT22;10230;51.502;10.800;2022-12-24T00:43:59;9.20;99.90
20139;DHT22;10230;51.502;10.800;2022-12-24T00:46:27;9.10;99.90
20139;DHT22;10230;51.502;10.800;2022-12-24T00:48:53;9.20;99.90
20139;DHT22;10230;51.502;10.800;2022-12-24T00:51:20;9.20;99.90
20139;DHT22;10230;51.502;10.800;2022-12-24T00:53:46;9.20;99.90
20139;DHT22;10230;51.502;10.800;2022-12-24T00:56:12;9.20;99.90
20139;DHT22;10230;51.502;10.800;2022-12-24T00:58:38;9.20;99.90
20139;DHT22;10230;51.502;10.800;2022-12-24T01:01:04;9.20;99.90
20139;DHT22;10230;51.502;10.800;2022-12-24T01:03:30;9.20;99.90
20139;DHT22;10230;51.502;10.800;2022-12-24T01:06:11;9.30;99.90
20139;DHT22;10230;51.502;10.800;2022-12-24T01:08:37;9.20;99.90
20139;DHT22;10230;51.502;10.800;2022-12-24T01:11:04;9.20;99.90
20139;DHT22;10230;51.502;10.800;2022-12-24T01:13:30;9.20;99.90
20139;DHT22;10230;51.502;10.800;2022-12-24T01:15:56;9.30;99.90
20139;DHT22;10230;51.502;10.800;2022-12-24T01:18:22;9.30;99.90
20139;DHT22;10230;51.502;10.800;2022-12-24T01:20:56;9.30;99.90
20139;DHT22;10230;51.502;10.800;2022-12-24T02:16:37;9.60;99.90
20139;DHT22;10230;51.502;10.800;2022-12-24T02:22:00;9.60;99.90
20139;DHT22;10230;51.502;10.800;2022-12-24T02:30:51;9.50;99.90
20139;DHT22;10230;51.502;10.800;2022-12-24T02:33:27;9.50;99.90
20139;DHT22;10230;51.502;10.800;2022-12-24T02:36:01;9.50;99.90
20139;DHT22;10230;51.502;10.800;2022-12-24T02:38:38;9.50;99.90
20139;DHT22;10230;51.502;10.800;2022-12-24T02:41:32;9.50;99.90
20139;DHT22;10230;51.502;10.800;2022-12-24T02:44:17;9.50;99.90
20139;DHT22;10230;51.502;10.800;2022-12-24T02:46:43;9.50;99.90
20139;DHT22;10230;51.502;10.800;2022-12-24T02:49:11;9.50;99.90
20139;DHT22;10230;51.502;10.800;2022-12-24T02:51:38;9.60;99.90
20139;DHT22;10230;51.502;10.800;2022-12-24T02:54:03;9.60;99.90
20139;DHT22;10230;51.502;10.800;2022-12-24T03:04:35;9.60;99.90
20139;DHT22;10230;51.502;10.800;2022-12-24T03:10:05;9.60;99.90
20139;DHT22;10230;51.502;10.800;2022-12-24T03:12:46;9.50;99.90
20139;DHT22;10230;51.502;10.800;2022-12-24T03:15:15;9.60;99.90
20139;DHT22;10230;51.502;10.800;2022-12-24T03:17:44;9.50;99.90
20139;DHT22;10230;51.502;10.800;2022-12-24T03:20:12;9.60;99.90
20139;DHT22;10230;51.502;10.800;2022-12-24T03:22:39;9.50;99.90
20139;DHT22;10230;51.502;10.800;2022-12-24T03:25:06;9.50;99.90
20139;DHT22;10230;51.502;10.800;2022-12-24T03:27:32;9.40;99.90
20139;DHT22;10230;51.502;10.800;2022-12-24T03:29:59;9.40;99.90
20139;DHT22;10230;51.502;10.800;2022-12-24T03:32:29;9.40;99.90
20139;DHT22;10230;51.502;10.800;2022-12-24T03:34:55;9.40;99.90
20139;DHT22;10230;51.502;10.800;2022-12-24T03:37:21;9.30;99.90
20139;DHT22;10230;51.502;10.800;2022-12-24T03:39:47;9.30;99.90
20139;DHT22;10230;51.502;10.800;2022-12-24T03:42:13;9.30;99.90
20139;DHT22;10230;51.502;10.800;2022-12-24T03:44:39;9.20;99.90
20139;DHT22;10230;51.502;10.800;2022-12-24T03:47:04;9.20;99.90
20139;DHT22;10230;51.502;10.800;2022-12-24T03:49:30;9.20;99.90
20139;DHT22;10230;51.502;10.800;2022-12-24T03:51:56;9.20;99.90
20139;DHT22;10230;51.502;10.800;2022-12-24T03:54:21;9.10;99.90
20139;DHT22;10230;51.502;10.800;2022-12-24T03:56:47;9.10;99.90
20139;DHT22;10230;51.502;10.800;2022-12-24T03:59:12;9.10;99.90
20139;DHT22;10230;51.502;10.800;2022-12-24T04:01:38;9.10;99.90
20139;DHT22;10230;51.502;10.800;2022-12-24T04:04:04;9.10;99.90
20139;DHT22;10230;51.502;10.800;2022-12-24T04:06:29;9.10;99.90
20139;DHT22;10230;51.502;10.800;2022-12-24T04:08:55;9.10;99.90
20139;DHT22;10230;51.502;10.800;2022-12-24T04:11:21;9.00;99.90
20139;DHT22;10230;51.502;10.800;2022-12-24T04:13:46;9.00;99.90
20139;DHT22;10230;51.502;10.800;2022-12-24T04:16:14;9.00;99.90
20139;DHT22;10230;51.502;10.800;2022-12-24T04:18:41;9.00;99.90
20139;DHT22;10230;51.502;10.800;2022-12-24T04:21:07;8.90;99.90
20139;DHT22;10230;51.502;10.800;2022-12-24T04:23:35;9.00;99.90
20139;DHT22;10230;51.502;10.800;2022-12-24T04:26:03;8.90;99.90
20139;DHT22;10230;51.502;10.800;2022-12-24T04:28:29;8.90;99.90
20139;DHT22;10230;51.502;10.800;2022-12-24T04:31:03;8.90;99.90
20139;DHT22;10230;51.502;10.800;2022-12-24T04:33:30;8.90;99.90
20139;DHT22;10230;51.502;10.800;2022-12-24T04:36:00;8.90;99.90
20139;DHT22;10230;51.502;10.800;2022-12-24T04:38:26;8.80;99.90
20139;DHT22;10230;51.502;10.800;2022-12-24T04:41:05;8.80;99.90
20139;DHT22;10230;51.502;10.800;2022-12-24T04:43:31;8.80;99.90
20139;DHT22;10230;51.502;10.800;2022-12-24T04:46:27;8.80;99.90
20139;DHT22;10230;51.502;10.800;2022-12-24T04:48:55;8.90;99.90
20139;DHT22;10230;51.502;10.800;2022-12-24T04:51:21;9.00;99.90
20139;DHT22;10230;51.502;10.800;2022-12-24T04:53:48;9.00;99.90
20139;DHT22;10230;51.502;10.800;2022-12-24T04:56:20;9.10;99.90
20139;DHT22;10230;51.502;10.800;2022-12-24T04:58:46;9.10;99.90
20139;DHT22;10230;51.502;10.800;2022-12-24T05:01:14;9.20;99.90
20139;DHT22;10230;51.502;10.800;2022-12-24T05:03:41;9.20;99.90
20139;DHT22;10230;51.502;10.800;2022-12-24T05:06:11;9.20;99.90
20139;DHT22;10230;51.502;10.800;2022-12-24T05:08:37;9.30;99.90
20139;DHT22;10230;51.502;10.800;2022-12-24T05:11:03;9.30;99.90
20139;DHT22;10230;51.502;10.800;2022-12-24T05:13:29;9.30;99.90
20139;DHT22;10230;51.502;10.800;2022-12-24T05:15:55;9.30;99.90
20139;DHT22;10230;51.502;10.800;2022-12-24T05:18:21;9.30;99.90
20139;DHT22;10230;51.502;10.800;2022-12-24T05:20:47;9.30;99.90
20139;DHT22;10230;51.502;10.800;2022-12-24T05:23:21;9.30;99.90
20139;DHT22;10230;51.502;10.800;2022-12-24T05:26:38;9.30;99.90
20139;DHT22;10230;51.502;10.800;2022-12-24T05:29:08;9.30;99.90
20139;DHT22;10230;51.502;10.800;2022-12-24T05:31:34;9.30;99.90
20139;DHT22;10230;51.502;10.800;2022-12-24T05:34:01;9.30;99.90
20139;DHT22;10230;51.502;10.800;2022-12-24T05:36:27;9.40;99.90
20139;DHT22;10230;51.502;10.800;2022-12-24T05:38:53;9.40;99.90
20139;DHT22;10230;51.502;10.800;2022-12-24T05:41:19;9.40;99.90
20139;DHT22;10230;51.502;10.800;2022-12-24T05:43:45;9.40;99.90
20139;DHT22;10230;51.502;10.800;2022-12-24T05:46:13;9.40;99.90
20139;DHT22;10230;51.502;10.800;2022-12-24T05:48:39;9.40;99.90
20139;DHT22;10230;51.502;10.800;2022-12-24T05:51:06;9.30;99.90
20139;DHT22;10230;51.502;10.800;2022-12-24T05:53:33;9.30;99.90
20139;DHT22;10230;51.502;10.800;2022-12-24T05:56:07;9.30;99.90
20139;DHT22;10230;51.502;10.800;2022-12-24T05:58:33;9.20;99.90
20139;DHT22;10230;51.502;10.800;2022-12-24T06:01:00;9.20;99.90
20139;DHT22;10230;51.502;10.800;2022-12-24T06:03:26;9.20;99.90
20139;DHT22;10230;51.502;10.800;2022-12-24T06:06:23;9.10;99.90
20139;DHT22;10230;51.502;10.800;2022-12-24T06:08:50;9.10;99.90
20139;DHT22;10230;51.502;10.800;2022-12-24T06:13:43;9.00;99.90
20139;DHT22;10230;51.502;10.800;2022-12-24T06:16:15;9.00;99.90
20139;DHT22;10230;51.502;10.800;2022-12-24T06:18:41;9.00;99.90
20139;DHT22;10230;51.502;10.800;2022-12-24T06:21:07;9.00;99.90
20139;DHT22;10230;51.502;10.800;2022-12-24T06:23:37;9.00;99.90
20139;DHT22;10230;51.502;10.800;2022-12-24T06:26:04;8.90;99.90
20139;DHT22;10230;51.502;10.800;2022-12-24T06:28:33;8.80;99.90
20139;DHT22;10230;51.502;10.800;2022-12-24T06:30:59;8.80;99.90
20139;DHT22;10230;51.502;10.800;2022-12-24T06:33:28;8.80;99.90
20139;DHT22;10230;51.502;10.800;2022-12-24T06:35:54;8.70;99.90
20139;DHT22;10230;51.502;10.800;2022-12-24T06:38:20;8.60;99.90
20139;DHT22;10230;51.502;10.800;2022-12-24T06:40:46;8.60;99.90
20139;DHT22;10230;51.502;10.800;2022-12-24T06:43:12;8.60;99.90
20139;DHT22;10230;51.502;10.800;2022-12-24T06:45:39;8.50;99.90
20139;DHT22;10230;51.502;10.800;2022-12-24T06:48:05;8.50;99.90
20139;DHT22;10230;51.502;10.800;2022-12-24T06:50:32;8.50;99.90
20139;DHT22;10230;51.502;10.800;2022-12-24T06:52:58;8.50;99.90
20139;DHT22;10230;51.502;10.800;2022-12-24T06:55:23;8.40;99.90
20139;DHT22;10230;51.502;10.800;2022-12-24T06:57:49;8.40;99.90
20139;DHT22;10230;51.502;10.800;2022-12-24T07:00:15;8.30;99.90
20139;DHT22;10230;51.502;10.800;2022-12-24T07:02:42;8.30;99.90
20139;DHT22;10230;51.502;10.800;2022-12-24T07:05:09;8.20;99.90
20139;DHT22;10230;51.502;10.800;2022-12-24T07:07:40;8.20;99.90
20139;DHT22;10230;51.502;10.800;2022-12-24T07:10:07;8.20;99.90
20139;DHT22;10230;51.502;10.800;2022-12-24T07:12:33;8.20;99.90
20139;DHT22;10230;51.502;10.800;2022-12-24T07:14:59;8.10;99.90
20139;DHT22;10230;51.502;10.800;2022-12-24T07:17:25;8.10;99.90
20139;DHT22;10230;51.502;10.800;2022-12-24T07:19:50;8.00;99.90
20139;DHT22;10230;51.502;10.800;2022-12-24T07:22:16;8.00;99.90
20139;DHT22;10230;51.502;10.800;2022-12-24T07:24:42;8.00;99.90
20139;DHT22;10230;51.502;10.800;2022-12-24T07:27:07;8.10;99.90
20139;DHT22;10230;51.502;10.800;2022-12-24T07:29:33;8.10;99.90
20139;DHT22;10230;51.502;10.800;2022-12-24T07:31:59;8.10;99.90
20139;DHT22;10230;51.502;10.800;2022-12-24T07:34:25;8.20;99.90
20139;DHT22;10230;51.502;10.800;2022-12-24T07:36:50;8.20;99.90
20139;DHT22;10230;51.502;10.800;2022-12-24T07:39:16;8.20;99.90
20139;DHT22;10230;51.502;10.800;2022-12-24T07:41:42;8.20;99.90
20139;DHT22;10230;51.502;10.800;2022-12-24T07:44:11;8.30;99.90
20139;DHT22;10230;51.502;10.800;2022-12-24T07:46:37;8.40;99.90
20139;DHT22;10230;51.502;10.800;2022-12-24T07:49:03;8.70;99.90
20139;DHT22;10230;51.502;10.800;2022-12-24T07:51:29;9.00;99.90
20139;DHT22;10230;51.502;10.800;2022-12-24T07:53:54;9.30;99.90
20139;DHT22;10230;51.502;10.800;2022-12-24T07:56:20;9.90;99.90
20139;DHT22;10230;51.502;10.800;2022-12-24T07:58:46;10.50;99.90
20139;DHT22;10230;51.502;10.800;2022-12-24T08:01:12;11.00;99.90
20139;DHT22;10230;51.502;10.800;2022-12-24T08:03:37;10.60;99.90
20139;DHT22;10230;51.502;10.800;2022-12-24T08:06:03;11.20;99.90
20139;DHT22;10230;51.502;10.800;2022-12-24T08:08:29;11.60;99.90
20139;DHT22;10230;51.502;10.800;2022-12-24T08:11:00;11.40;99.90
20139;DHT22;10230;51.502;10.800;2022-12-24T08:13:26;10.90;99.90
20139;DHT22;10230;51.502;10.800;2022-12-24T08:15:51;10.60;99.90
20139;DHT22;10230;51.502;10.800;2022-12-24T08:18:17;10.30;99.90
20139;DHT22;10230;51.502;10.800;2022-12-24T08:20:43;10.10;99.90
20139;DHT22;10230;51.502;10.800;2022-12-24T08:23:08;10.30;99.90
20139;DHT22;10230;51.502;10.800;2022-12-24T08:25:34;10.50;99.90
20139;DHT22;10230;51.502;10.800;2022-12-24T08:28:00;10.50;99.90
20139;DHT22;10230;51.502;10.800;2022-12-24T08:30:26;10.40;99.90
20139;DHT22;10230;51.502;10.800;2022-12-24T08:32:51;10.20;99.90
20139;DHT22;10230;51.502;10.800;2022-12-24T08:35:19;10.00;99.90
20139;DHT22;10230;51.502;10.800;2022-12-24T08:37:45;9.90;99.90
20139;DHT22;10230;51.502;10.800;2022-12-24T08:40:11;9.80;99.90
20139;DHT22;10230;51.502;10.800;2022-12-24T08:42:37;9.80;99.90
20139;DHT22;10230;51.502;10.800;2022-12-24T08:45:03;9.80;99.90
20139;DHT22;10230;51.502;10.800;2022-12-24T08:47:28;9.80;99.90
20139;DHT22;10230;51.502;10.800;2022-12-24T08:49:54;9.90;99.90
20139;DHT22;10230;51.502;10.800;2022-12-24T08:52:19;10.00;99.90
20139;DHT22;10230;51.502;10.800;2022-12-24T09:06:57;20.60;99.90
20139;DHT22;10230;51.502;10.800;2022-12-24T09:09:22;21.30;99.90
20139;DHT22;10230;51.502;10.800;2022-12-24T09:11:48;21.40;99.90
20139;DHT22;10230;51.502;10.800;2022-12-24T09:14:13;20.90;99.90
20139;DHT22;10230;51.502;10.800;2022-12-24T09:19:05;18.30;99.90
20139;DHT22;10230;51.502;10.800;2022-12-24T09:21:31;16.60;99.90
20139;DHT22;10230;51.502;10.800;2022-12-24T09:33:46;13.80;99.90
20139;DHT22;10230;51.502;10.800;2022-12-24T09:36:12;12.80;99.90
20139;DHT22;10230;51.502;10.800;2022-12-24T09:38:38;12.50;99.90
20139;DHT22;10230;51.502;10.800;2022-12-24T09:44:35;11.70;99.90
20139;DHT22;10230;51.502;10.800;2022-12-24T09:47:13;11.30;99.90
20139;DHT22;10230;51.502;10.800;2022-12-24T09:49:43;11.00;99.90
20139;DHT22;10230;51.502;10.800;2022-12-24T09:52:14;10.90;99.90
20139;DHT22;10230;51.502;10.800;2022-12-24T09:54:44;10.90;99.90
20139;DHT22;10230;51.502;10.800;2022-12-24T09:57:28;11.40;99.90
20139;DHT22;10230;51.502;10.800;2022-12-24T09:59:54;12.30;99.90
20139;DHT22;10230;51.502;10.800;2022-12-24T10:02:20;12.70;99.90
20139;DHT22;10230;51.502;10.800;2022-12-24T10:04:47;12.70;99.90
20139;DHT22;10230;51.502;10.800;2022-12-24T10:07:50;12.60;99.90
20139;DHT22;10230;51.502;10.800;2022-12-24T10:13:28;13.10;99.90
20139;DHT22;10230;51.502;10.800;2022-12-24T10:22:03;13.10;99.90
20139;DHT22;10230;51.502;10.800;2022-12-24T10:24:42;12.90;99.90
20139;DHT22;10230;51.502;10.800;2022-12-24T10:27:14;12.40;99.90
20139;DHT22;10230;51.502;10.800;2022-12-24T10:29:48;12.10;99.90
20139;DHT22;10230;51.502;10.800;2022-12-24T10:35:16;11.60;99.90
20139;DHT22;10230;51.502;10.800;2022-12-24T10:37:35;11.30;99.90
20139;DHT22;10230;51.502;10.800;2022-12-24T10:40:02;11.10;99.90
20139;DHT22;10230;51.502;10.800;2022-12-24T10:42:40;11.00;99.90
20139;DHT22;10230;51.502;10.800;2022-12-24T10:45:14;10.90;99.90
20139;DHT22;10230;51.502;10.800;2022-12-24T10:47:42;10.90;99.90
20139;DHT22;10230;51.502;10.800;2022-12-24T10:50:09;10.90;99.90
20139;DHT22;10230;51.502;10.800;2022-12-24T10:52:39;10.80;99.90
20139;DHT22;10230;51.502;10.800;2022-12-24T10:57:39;10.80;99.90
20139;DHT22;10230;51.502;10.800;2022-12-24T11:00:07;10.80;99.90
20139;DHT22;10230;51.502;10.800;2022-12-24T11:02:42;10.80;99.90
20139;DHT22;10230;51.502;10.800;2022-12-24T11:05:29;10.80;99.90
20139;DHT22;10230;51.502;10.800;2022-12-24T11:08:04;10.80;99.90
20139;DHT22;10230;51.502;10.800;2022-12-24T11:10:34;10.80;99.90
20139;DHT22;10230;51.502;10.800;2022-12-24T11:13:01;10.80;99.90
20139;DHT22;10230;51.502;10.800;2022-12-24T11:15:31;10.70;99.90
20139;DHT22;10230;51.502;10.800;2022-12-24T11:18:11;10.70;99.90
20139;DHT22;10230;51.502;10.800;2022-12-24T11:20:38;10.70;99.90
20139;DHT22;10230;51.502;10.800;2022-12-24T11:23:04;10.70;99.90
20139;DHT22;10230;51.502;10.800;2022-12-24T11:25:31;10.80;99.90
20139;DHT22;10230;51.502;10.800;2022-12-24T11:28:18;10.80;99.90
20139;DHT22;10230;51.502;10.800;2022-12-24T11:31:20;10.80;99.90
20139;DHT22;10230;51.502;10.800;2022-12-24T11:33:49;10.90;99.90
20139;DHT22;10230;51.502;10.800;2022-12-24T11:36:18;10.90;99.90
20139;DHT22;10230;51.502;10.800;2022-12-24T11:38:55;10.90;99.90
20139;DHT22;10230;51.502;10.800;2022-12-24T11:41:22;10.90;99.90
20139;DHT22;10230;51.502;10.800;2022-12-24T11:43:50;10.90;99.90
20139;DHT22;10230;51.502;10.800;2022-12-24T11:48:43;10.90;99.90
20139;DHT22;10230;51.502;10.800;2022-12-24T11:51:26;10.90;99.90
20139;DHT22;10230;51.502;10.800;2022-12-24T11:56:43;11.00;99.90
20139;DHT22;10230;51.502;10.800;2022-12-24T12:04:24;11.00;99.90
20139;DHT22;10230;51.502;10.800;2022-12-24T12:07:12;11.00;99.90
20139;DHT22;10230;51.502;10.800;2022-12-24T12:09:44;11.00;99.90
20139;DHT22;10230;51.502;10.800;2022-12-24T12:12:16;11.10;99.90
20139;DHT22;10230;51.502;10.800;2022-12-24T12:14:52;11.10;99.90
20139;DHT22;10230;51.502;10.800;2022-12-24T12:17:39;11.10;99.90
20139;DHT22;10230;51.502;10.800;2022-12-24T12:20:17;11.10;99.90
20139;DHT22;10230;51.502;10.800;2022-12-24T12:28:01;11.30;99.90
20139;DHT22;10230;51.502;10.800;2022-12-24T12:30:28;11.30;99.90
20139;DHT22;10230;51.502;10.800;2022-12-24T12:33:17;11.30;99.90
20139;DHT22;10230;51.502;10.800;2022-12-24T12:35:44;11.30;99.90
20139;DHT22;10230;51.502;10.800;2022-12-24T12:38:17;11.20;99.90
20139;DHT22;10230;51.502;10.800;2022-12-24T12:52:32;11.20;99.90
20139;DHT22;10230;51.502;10.800;2022-12-24T12:55:22;11.20;99.90
20139;DHT22;10230;51.502;10.800;2022-12-24T12:57:54;11.10;99.90
20139;DHT22;10230;51.502;10.800;2022-12-24T13:00:21;11.10;99.90
20139;DHT22;10230;51.502;10.800;2022-12-24T13:17:02;11.10;99.90
20139;DHT22;10230;51.502;10.800;2022-12-24T13:20:00;11.10;99.90
20139;DHT22;10230;51.502;10.800;2022-12-24T13:22:29;11.10;99.90
20139;DHT22;10230;51.502;10.800;2022-12-24T13:24:55;11.00;99.90
20139;DHT22;10230;51.502;10.800;2022-12-24T13:27:26;11.00;99.90
20139;DHT22;10230;51.502;10.800;2022-12-24T13:29:53;11.10;99.90
20139;DHT22;10230;51.502;10.800;2022-12-24T13:37:31;11.10;99.90
20139;DHT22;10230;51.502;10.800;2022-12-24T13:45:43;11.20;99.90
20139;DHT22;10230;51.502;10.800;2022-12-24T13:50:43;11.20;99.90
20139;DHT22;10230;51.502;10.800;2022-12-24T13:56:39;11.30;99.90
20139;DHT22;10230;51.502;10.800;2022-12-24T13:58:51;11.30;99.90
20139;DHT22;10230;51.502;10.800;2022-12-24T14:01:31;11.30;99.90
20139;DHT22;10230;51.502;10.800;2022-12-24T14:03:59;11.30;99.90
20139;DHT22;10230;51.502;10.800;2022-12-24T14:06:33;11.20;99.90
20139;DHT22;10230;51.502;10.800;2022-12-24T14:14:33;11.20;99.90
20139;DHT22;10230;51.502;10.800;2022-12-24T14:17:20;11.10;99.90
